sensor_id;sensor_type;location;lat;lon;timestamp;temperature;humidity
4695;DHT22;2361;49.540;8.390;2023-09-18T00:00:25;22.90;99.90
4695;DHT22;2361;49.540;8.390;2023-09-18T00:02:52;22.80;99.90
4695;DHT22;2361;49.540;8.390;2023-09-18T00:05:19;22.70;99.90
4695;DHT22;2361;49.540;8.390;2023-09-18T00:07:46;22.70;99.90
4695;DHT22;2361;49.540;8.390;2023-09-18T00:10:12;22.70;99.90
4695;DHT22;2361;49.540;8.390;2023-09-18T00:12:40;22.80;99.90
4695;DHT22;2361;49.540;8.390;2023-09-18T00:15:07;22.80;99.90
4695;DHT22;2361;49.540;8.390;2023-09-18T00:17:37;22.80;99.90
4695;DHT22;2361;49.540;8.390;2023-09-18T00:20:04;22.80;99.90
4695;DHT22;2361;49.540;8.390;2023-09-18T00:22:33;22.80;99.90
4695;DHT22;2361;49.540;8.390;2023-09-18T00:25:00;22.80;99.90
4695;DHT22;2361;49.540;8.390;2023-09-18T00:27:30;22.90;99.90
4695;DHT22;2361;49.540;8.390;2023-09-18T00:29:59;22.90;99.90
4695;DHT22;2361;49.540;8.390;2023-09-18T00:32:27;22.90;99.90
4695;DHT22;2361;49.540;8.390;2023-09-18T00:34:54;22.90;99.90
4695;DHT22;2361;49.540;8.390;2023-09-18T00:37:22;22.90;99.90
4695;DHT22;2361;49.540;8.390;2023-09-18T00:39:50;22.90;99.90
4695;DHT22;2361;49.540;8.390;2023-09-18T00:42:16;22.80;99.90
4695;DHT22;2361;49.540;8.390;2023-09-18T00:44:45;22.70;99.90
4695;DHT22;2361;49.540;8.390;2023-09-18T00:47:12;22.70;99.90
4695;DHT22;2361;49.540;8.390;2023-09-18T00:49:41;22.70;99.90
4695;DHT22;2361;49.540;8.390;2023-09-18T00:52:10;22.70;99.90
4695;DHT22;2361;49.540;8.390;2023-09-18T00:54:38;22.70;99.90
4695;DHT22;2361;49.540;8.390;2023-09-18T00:57:08;22.70;99.90
4695;DHT22;2361;49.540;8.390;2023-09-18T00:59:38;22.60;99.90
4695;DHT22;2361;49.540;8.390;2023-09-18T01:02:05;22.60;99.90
4695;DHT22;2361;49.540;8.390;2023-09-18T01:04:33;22.50;99.90
4695;DHT22;2361;49.540;8.390;2023-09-18T01:07:00;22.50;99.90
4695;DHT22;2361;49.540;8.390;2023-09-18T01:09:31;22.50;99.90
4695;DHT22;2361;49.540;8.390;2023-09-18T01:12:19;22.50;99.90
4695;DHT22;2361;49.540;8.390;2023-09-18T01:15:22;22.60;99.90
4695;DHT22;2361;49.540;8.390;2023-09-18T01:17:57;22.60;99.90
4695;DHT22;2361;49.540;8.390;2023-09-18T01:20:24;22.70;99.90
4695;DHT22;2361;49.540;8.390;2023-09-18T01:22:51;22.70;99.90
4695;DHT22;2361;49.540;8.390;2023-09-18T01:25:18;22.70;99.90
4695;DHT22;2361;49.540;8.390;2023-09-18T01:27:45;22.60;99.90
4695;DHT22;2361;49.540;8.390;2023-09-18T01:30:12;22.60;99.90
4695;DHT22;2361;49.540;8.390;2023-09-18T01:32:39;22.50;99.90
4695;DHT22;2361;49.540;8.390;2023-09-18T01:35:09;22.50;99.90
4695;DHT22;2361;49.540;8.390;2023-09-18T01:37:37;22.60;99.90
4695;DHT22;2361;49.540;8.390;2023-09-18T01:40:05;22.60;99.90
4695;DHT22;2361;49.540;8.390;2023-09-18T01:42:34;22.50;99.90
4695;DHT22;2361;49.540;8.390;2023-09-18T01:45:02;22.40;99.90
4695;DHT22;2361;49.540;8.390;2023-09-18T01:47:29;22.40;99.90
4695;DHT22;2361;49.540;8.390;2023-09-18T01:49:56;22.40;99.90
4695;DHT22;2361;49.540;8.390;2023-09-18T01:52:23;22.30;99.90
4695;DHT22;2361;49.540;8.390;2023-09-18T01:54:50;22.30;99.90
4695;DHT22;2361;49.540;8.390;2023-09-18T01:57:17;22.20;99.90
4695;DHT22;2361;49.540;8.390;2023-09-18T01:59:44;22.20;99.90
4695;DHT22;2361;49.540;8.390;2023-09-18T02:02:12;22.10;99.90
4695;DHT22;2361;49.540;8.390;2023-09-18T02:04:50;22.00;99.90
4695;DHT22;2361;49.540;8.390;2023-09-18T02:07:34;22.00;99.90
4695;DHT22;2361;49.540;8.390;2023-09-18T02:10:02;22.00;99.90
4695;DHT22;2361;49.540;8.390;2023-09-18T02:12:29;21.90;99.90
4695;DHT22;2361;49.540;8.390;2023-09-18T02:14:56;21.90;99.90
4695;DHT22;2361;49.540;8.390;2023-09-18T02:17:25;21.70;99.90
4695;DHT22;2361;49.540;8.390;2023-09-18T02:19:52;21.70;99.90
4695;DHT22;2361;49.540;8.390;2023-09-18T02:22:19;21.70;99.90
4695;DHT22;2361;49.540;8.390;2023-09-18T02:24:46;21.60;99.90
4695;DHT22;2361;49.540;8.390;2023-09-18T02:27:13;21.70;99.90
4695;DHT22;2361;49.540;8.390;2023-09-18T02:29:43;21.70;99.90
4695;DHT22;2361;49.540;8.390;2023-09-18T02:32:11;21.80;99.90
4695;DHT22;2361;49.540;8.390;2023-09-18T02:34:39;21.80;99.90
4695;DHT22;2361;49.540;8.390;2023-09-18T02:37:06;21.90;99.90
4695;DHT22;2361;49.540;8.390;2023-09-18T02:39:33;21.90;99.90
4695;DHT22;2361;49.540;8.390;2023-09-18T02:42:00;21.90;99.90
4695;DHT22;2361;49.540;8.390;2023-09-18T02:44:27;21.90;99.90
4695;DHT22;2361;49.540;8.390;2023-09-18T02:46:54;21.80;99.90
4695;DHT22;2361;49.540;8.390;2023-09-18T02:49:21;21.70;99.90
4695;DHT22;2361;49.540;8.390;2023-09-18T02:51:47;21.60;99.90
4695;DHT22;2361;49.540;8.390;2023-09-18T02:54:16;21.60;99.90
4695;DHT22;2361;49.540;8.390;2023-09-18T02:56:43;21.50;99.90
4695;DHT22;2361;49.540;8.390;2023-09-18T02:59:10;21.50;99.90
4695;DHT22;2361;49.540;8.390;2023-09-18T03:01:37;21.50;99.90
4695;DHT22;2361;49.540;8.390;2023-09-18T03:04:04;21.60;99.90
4695;DHT22;2361;49.540;8.390;2023-09-18T03:06:31;21.60;99.90
4695;DHT22;2361;49.540;8.390;2023-09-18T03:08:58;21.70;99.90
4695;DHT22;2361;49.540;8.390;2023-09-18T03:11:25;21.80;99.90
4695;DHT22;2361;49.540;8.390;2023-09-18T03:13:54;21.80;99.90
4695;DHT22;2361;49.540;8.390;2023-09-18T03:16:22;21.80;99.90
4695;DHT22;2361;49.540;8.390;2023-09-18T03:18:49;21.80;99.90
4695;DHT22;2361;49.540;8.390;2023-09-18T03:21:16;21.90;99.90
4695;DHT22;2361;49.540;8.390;2023-09-18T03:23:43;21.80;99.90
4695;DHT22;2361;49.540;8.390;2023-09-18T03:26:10;21.90;99.90
4695;DHT22;2361;49.540;8.390;2023-09-18T03:28:37;21.90;99.90
4695;DHT22;2361;49.540;8.390;2023-09-18T03:31:04;21.90;99.90
4695;DHT22;2361;49.540;8.390;2023-09-18T03:33:33;21.90;99.90
4695;DHT22;2361;49.540;8.390;2023-09-18T03:36:00;21.90;99.90
4695;DHT22;2361;49.540;8.390;2023-09-18T03:38:27;21.90;99.90
4695;DHT22;2361;49.540;8.390;2023-09-18T03:40:59;21.90;99.90
4695;DHT22;2361;49.540;8.390;2023-09-18T03:43:28;21.90;99.90
4695;DHT22;2361;49.540;8.390;2023-09-18T03:45:54;21.80;99.90
4695;DHT22;2361;49.540;8.390;2023-09-18T03:48:21;21.80;99.90
4695;DHT22;2361;49.540;8.390;2023-09-18T03:50:48;21.80;99.90
4695;DHT22;2361;49.540;8.390;2023-09-18T03:53:15;21.70;99.90
4695;DHT22;2361;49.540;8.390;2023-09-18T03:55:42;21.70;99.90
4695;DHT22;2361;49.540;8.390;2023-09-18T03:58:09;21.70;99.90
4695;DHT22;2361;49.540;8.390;2023-09-18T04:00:37;21.70;99.90
4695;DHT22;2361;49.540;8.390;2023-09-18T04:03:04;21.80;99.90
4695;DHT22;2361;49.540;8.390;2023-09-18T04:05:31;21.80;99.90
4695;DHT22;2361;49.540;8.390;2023-09-18T04:07:58;21.80;99.90
4695;DHT22;2361;49.540;8.390;2023-09-18T04:10:26;21.80;99.90
4695;DHT22;2361;49.540;8.390;2023-09-18T04:12:53;21.70;99.90
4695;DHT22;2361;49.540;8.390;2023-09-18T04:15:20;21.70;99.90
4695;DHT22;2361;49.540;8.390;2023-09-18T04:17:47;21.70;99.90
4695;DHT22;2361;49.540;8.390;2023-09-18T04:20:15;21.70;99.90
4695;DHT22;2361;49.540;8.390;2023-09-18T04:22:44;21.80;99.90
4695;DHT22;2361;49.540;8.390;2023-09-18T04:25:12;21.80;99.90
4695;DHT22;2361;49.540;8.390;2023-09-18T04:27:40;21.80;99.90
4695;DHT22;2361;49.540;8.390;2023-09-18T04:30:07;21.70;99.90
4695;DHT22;2361;49.540;8.390;2023-09-18T04:32:37;21.70;99.90
4695;DHT22;2361;49.540;8.390;2023-09-18T04:35:05;21.60;99.90
4695;DHT22;2361;49.540;8.390;2023-09-18T04:37:36;21.60;99.90
4695;DHT22;2361;49.540;8.390;2023-09-18T04:40:06;21.50;99.90
4695;DHT22;2361;49.540;8.390;2023-09-18T04:42:38;21.50;99.90
4695;DHT22;2361;49.540;8.390;2023-09-18T04:45:07;21.50;99.90
4695;DHT22;2361;49.540;8.390;2023-09-18T04:47:34;21.50;99.90
4695;DHT22;2361;49.540;8.390;2023-09-18T04:50:02;21.40;99.90
4695;DHT22;2361;49.540;8.390;2023-09-18T04:52:38;21.40;99.90
4695;DHT22;2361;49.540;8.390;2023-09-18T04:55:07;21.30;99.90
4695;DHT22;2361;49.540;8.390;2023-09-18T04:57:35;21.20;99.90
4695;DHT22;2361;49.540;8.390;2023-09-18T05:00:02;21.20;99.90
4695;DHT22;2361;49.540;8.390;2023-09-18T05:02:43;21.10;99.90
4695;DHT22;2361;49.540;8.390;2023-09-18T05:05:10;21.20;99.90
4695;DHT22;2361;49.540;8.390;2023-09-18T05:07:37;21.20;99.90
4695;DHT22;2361;49.540;8.390;2023-09-18T05:10:04;21.20;99.90
4695;DHT22;2361;49.540;8.390;2023-09-18T05:12:32;21.20;99.90
4695;DHT22;2361;49.540;8.390;2023-09-18T05:14:58;21.20;99.90
4695;DHT22;2361;49.540;8.390;2023-09-18T05:17:46;21.10;99.90
4695;DHT22;2361;49.540;8.390;2023-09-18T05:20:16;21.10;99.90
4695;DHT22;2361;49.540;8.390;2023-09-18T05:22:44;21.10;99.90
4695;DHT22;2361;49.540;8.390;2023-09-18T05:25:12;21.10;99.90
4695;DHT22;2361;49.540;8.390;2023-09-18T05:27:41;21.20;99.90
4695;DHT22;2361;49.540;8.390;2023-09-18T05:30:13;21.10;99.90
4695;DHT22;2361;49.540;8.390;2023-09-18T05:32:42;21.10;99.90
4695;DHT22;2361;49.540;8.390;2023-09-18T05:35:11;21.10;99.90
4695;DHT22;2361;49.540;8.390;2023-09-18T05:37:41;21.10;99.90
4695;DHT22;2361;49.540;8.390;2023-09-18T05:40:10;21.00;99.90
4695;DHT22;2361;49.540;8.390;2023-09-18T05:42:42;20.90;99.90
4695;DHT22;2361;49.540;8.390;2023-09-18T05:45:11;20.90;99.90
4695;DHT22;2361;49.540;8.390;2023-09-18T05:47:39;20.90;99.90
4695;DHT22;2361;49.540;8.390;2023-09-18T05:50:08;20.90;99.90
4695;DHT22;2361;49.540;8.390;2023-09-18T05:52:35;20.90;99.90
4695;DHT22;2361;49.540;8.390;2023-09-18T05:55:03;20.80;99.90
4695;DHT22;2361;49.540;8.390;2023-09-18T05:57:31;20.80;99.90
4695;DHT22;2361;49.540;8.390;2023-09-18T05:59:58;20.80;99.90
4695;DHT22;2361;49.540;8.390;2023-09-18T06:02:25;20.80;99.90
4695;DHT22;2361;49.540;8.390;2023-09-18T06:04:57;20.80;99.90
4695;DHT22;2361;49.540;8.390;2023-09-18T06:07:29;20.80;99.90
4695;DHT22;2361;49.540;8.390;2023-09-18T06:09:57;20.80;99.90
4695;DHT22;2361;49.540;8.390;2023-09-18T06:12:25;20.80;99.90
4695;DHT22;2361;49.540;8.390;2023-09-18T06:14:52;20.80;99.90
4695;DHT22;2361;49.540;8.390;2023-09-18T06:17:19;20.80;99.90
4695;DHT22;2361;49.540;8.390;2023-09-18T06:19:46;20.90;99.90
4695;DHT22;2361;49.540;8.390;2023-09-18T06:22:13;20.90;99.90
4695;DHT22;2361;49.540;8.390;2023-09-18T06:24:41;20.90;99.90
4695;DHT22;2361;49.540;8.390;2023-09-18T06:27:08;20.90;99.90
4695;DHT22;2361;49.540;8.390;2023-09-18T06:29:37;20.90;99.90
4695;DHT22;2361;49.540;8.390;2023-09-18T06:32:06;21.00;99.90
4695;DHT22;2361;49.540;8.390;2023-09-18T06:34:33;21.00;99.90
4695;DHT22;2361;49.540;8.390;2023-09-18T06:37:00;21.10;99.90
4695;DHT22;2361;49.540;8.390;2023-09-18T06:39:27;21.10;99.90
4695;DHT22;2361;49.540;8.390;2023-09-18T06:41:54;21.20;99.90
4695;DHT22;2361;49.540;8.390;2023-09-18T06:44:21;21.20;99.90
4695;DHT22;2361;49.540;8.390;2023-09-18T06:46:50;21.20;99.90
4695;DHT22;2361;49.540;8.390;2023-09-18T06:49:17;21.20;99.90
4695;DHT22;2361;49.540;8.390;2023-09-18T06:51:46;21.20;99.90
4695;DHT22;2361;49.540;8.390;2023-09-18T06:54:13;21.30;99.90
4695;DHT22;2361;49.540;8.390;2023-09-18T06:56:40;21.30;99.90
4695;DHT22;2361;49.540;8.390;2023-09-18T06:59:08;21.30;99.90
4695;DHT22;2361;49.540;8.390;2023-09-18T07:01:35;21.20;99.90
4695;DHT22;2361;49.540;8.390;2023-09-18T07:04:02;21.30;99.90
4695;DHT22;2361;49.540;8.390;2023-09-18T07:06:31;21.30;99.90
4695;DHT22;2361;49.540;8.390;2023-09-18T07:08:58;21.30;99.90
4695;DHT22;2361;49.540;8.390;2023-09-18T07:11:26;21.40;99.90
4695;DHT22;2361;49.540;8.390;2023-09-18T07:13:52;21.40;99.90
4695;DHT22;2361;49.540;8.390;2023-09-18T07:16:19;21.40;99.90
4695;DHT22;2361;49.540;8.390;2023-09-18T07:18:47;21.50;99.90
4695;DHT22;2361;49.540;8.390;2023-09-18T07:21:13;21.50;99.90
4695;DHT22;2361;49.540;8.390;2023-09-18T07:23:40;21.50;99.90
4695;DHT22;2361;49.540;8.390;2023-09-18T07:26:07;21.50;99.90
4695;DHT22;2361;49.540;8.390;2023-09-18T07:28:35;21.60;99.90
4695;DHT22;2361;49.540;8.390;2023-09-18T07:31:06;21.60;99.90
4695;DHT22;2361;49.540;8.390;2023-09-18T07:33:33;21.60;99.90
4695;DHT22;2361;49.540;8.390;2023-09-18T07:36:01;21.70;99.90
4695;DHT22;2361;49.540;8.390;2023-09-18T07:38:27;21.80;99.90
4695;DHT22;2361;49.540;8.390;2023-09-18T07:40:55;21.80;99.90
4695;DHT22;2361;49.540;8.390;2023-09-18T07:43:24;21.80;99.90
4695;DHT22;2361;49.540;8.390;2023-09-18T07:45:53;21.80;99.90
4695;DHT22;2361;49.540;8.390;2023-09-18T07:48:22;21.80;99.90
4695;DHT22;2361;49.540;8.390;2023-09-18T07:50:49;21.80;99.90
4695;DHT22;2361;49.540;8.390;2023-09-18T07:53:18;21.80;99.90
4695;DHT22;2361;49.540;8.390;2023-09-18T07:55:47;21.80;99.90
4695;DHT22;2361;49.540;8.390;2023-09-18T07:58:15;21.80;99.90
4695;DHT22;2361;49.540;8.390;2023-09-18T08:00:42;21.70;99.90
4695;DHT22;2361;49.540;8.390;2023-09-18T08:03:09;21.70;99.90
4695;DHT22;2361;49.540;8.390;2023-09-18T08:05:37;21.70;99.90
4695;DHT22;2361;49.540;8.390;2023-09-18T08:08:04;21.60;99.90
4695;DHT22;2361;49.540;8.390;2023-09-18T08:10:32;21.60;99.90
4695;DHT22;2361;49.540;8.390;2023-09-18T08:12:59;21.60;99.90
4695;DHT22;2361;49.540;8.390;2023-09-18T08:15:26;21.60;99.90
4695;DHT22;2361;49.540;8.390;2023-09-18T08:17:53;21.60;99.90
4695;DHT22;2361;49.540;8.390;2023-09-18T08:23:03;21.70;99.90
4695;DHT22;2361;49.540;8.390;2023-09-18T08:25:32;21.70;99.90
4695;DHT22;2361;49.540;8.390;2023-09-18T08:27:59;21.70;99.90
4695;DHT22;2361;49.540;8.390;2023-09-18T08:30:26;21.70;99.90
4695;DHT22;2361;49.540;8.390;2023-09-18T08:32:53;21.70;99.90
4695;DHT22;2361;49.540;8.390;2023-09-18T08:35:20;21.60;99.90
4695;DHT22;2361;49.540;8.390;2023-09-18T08:37:48;21.60;99.90
4695;DHT22;2361;49.540;8.390;2023-09-18T08:40:15;21.60;99.90
4695;DHT22;2361;49.540;8.390;2023-09-18T08:42:47;21.60;99.90
4695;DHT22;2361;49.540;8.390;2023-09-18T08:45:27;21.60;99.90
4695;DHT22;2361;49.540;8.390;2023-09-18T08:48:02;21.70;99.90
4695;DHT22;2361;49.540;8.390;2023-09-18T08:50:30;21.60;99.90
4695;DHT22;2361;49.540;8.390;2023-09-18T08:52:58;21.60;99.90
4695;DHT22;2361;49.540;8.390;2023-09-18T08:55:26;21.60;99.90
4695;DHT22;2361;49.540;8.390;2023-09-18T08:57:53;21.60;99.90
4695;DHT22;2361;49.540;8.390;2023-09-18T09:00:22;21.60;99.90
4695;DHT22;2361;49.540;8.390;2023-09-18T09:02:49;21.70;99.90
4695;DHT22;2361;49.540;8.390;2023-09-18T09:05:18;21.70;99.90
4695;DHT22;2361;49.540;8.390;2023-09-18T09:07:45;21.80;99.90
4695;DHT22;2361;49.540;8.390;2023-09-18T09:10:12;21.80;99.90
4695;DHT22;2361;49.540;8.390;2023-09-18T09:12:58;21.90;99.90
4695;DHT22;2361;49.540;8.390;2023-09-18T09:15:54;21.90;99.90
4695;DHT22;2361;49.540;8.390;2023-09-18T09:18:27;21.90;99.90
4695;DHT22;2361;49.540;8.390;2023-09-18T09:21:00;21.90;99.90
4695;DHT22;2361;49.540;8.390;2023-09-18T09:23:49;22.00;99.90
4695;DHT22;2361;49.540;8.390;2023-09-18T09:26:21;22.10;99.90
4695;DHT22;2361;49.540;8.390;2023-09-18T09:30:00;22.20;99.90
4695;DHT22;2361;49.540;8.390;2023-09-18T09:32:32;22.30;99.90
4695;DHT22;2361;49.540;8.390;2023-09-18T09:35:00;22.30;99.90
4695;DHT22;2361;49.540;8.390;2023-09-18T09:37:32;22.30;99.90
4695;DHT22;2361;49.540;8.390;2023-09-18T09:40:03;22.30;99.90
4695;DHT22;2361;49.540;8.390;2023-09-18T09:42:40;22.30;99.90
4695;DHT22;2361;49.540;8.390;2023-09-18T09:45:12;22.40;99.90
4695;DHT22;2361;49.540;8.390;2023-09-18T09:47:42;22.30;99.90
4695;DHT22;2361;49.540;8.390;2023-09-18T09:50:14;22.20;99.90
4695;DHT22;2361;49.540;8.390;2023-09-18T09:52:49;22.20;99.90
4695;DHT22;2361;49.540;8.390;2023-09-18T09:55:23;22.10;99.90
4695;DHT22;2361;49.540;8.390;2023-09-18T09:58:02;22.10;99.90
4695;DHT22;2361;49.540;8.390;2023-09-18T10:00:49;22.10;99.90
4695;DHT22;2361;49.540;8.390;2023-09-18T10:03:20;22.00;99.90
4695;DHT22;2361;49.540;8.390;2023-09-18T10:05:50;22.00;99.90
4695;DHT22;2361;49.540;8.390;2023-09-18T10:08:25;22.00;99.90
4695;DHT22;2361;49.540;8.390;2023-09-18T10:10:56;22.10;99.90
4695;DHT22;2361;49.540;8.390;2023-09-18T10:13:48;22.10;99.90
4695;DHT22;2361;49.540;8.390;2023-09-18T10:16:19;22.20;99.90
4695;DHT22;2361;49.540;8.390;2023-09-18T10:24:39;22.50;99.90
4695;DHT22;2361;49.540;8.390;2023-09-18T10:27:08;22.40;99.90
4695;DHT22;2361;49.540;8.390;2023-09-18T10:29:38;22.50;99.90
4695;DHT22;2361;49.540;8.390;2023-09-18T10:32:08;22.50;99.90
4695;DHT22;2361;49.540;8.390;2023-09-18T10:34:35;22.50;99.90
4695;DHT22;2361;49.540;8.390;2023-09-18T10:37:04;22.50;99.90
4695;DHT22;2361;49.540;8.390;2023-09-18T10:39:38;22.60;99.90
4695;DHT22;2361;49.540;8.390;2023-09-18T10:42:08;22.70;99.90
4695;DHT22;2361;49.540;8.390;2023-09-18T10:44:36;22.80;99.90
4695;DHT22;2361;49.540;8.390;2023-09-18T10:47:08;22.90;99.90
4695;DHT22;2361;49.540;8.390;2023-09-18T10:49:36;23.00;99.90
4695;DHT22;2361;49.540;8.390;2023-09-18T10:52:03;23.20;99.90
4695;DHT22;2361;49.540;8.390;2023-09-18T10:54:32;23.30;99.90
4695;DHT22;2361;49.540;8.390;2023-09-18T10:56:59;23.50;99.90
4695;DHT22;2361;49.540;8.390;2023-09-18T10:59:28;23.60;99.90
4695;DHT22;2361;49.540;8.390;2023-09-18T11:02:01;23.70;99.90
4695;DHT22;2361;49.540;8.390;2023-09-18T11:04:32;23.70;99.90
4695;DHT22;2361;49.540;8.390;2023-09-18T11:09:44;23.90;99.90
4695;DHT22;2361;49.540;8.390;2023-09-18T11:12:14;23.90;99.90
4695;DHT22;2361;49.540;8.390;2023-09-18T11:14:49;24.10;99.90
4695;DHT22;2361;49.540;8.390;2023-09-18T11:17:37;24.00;99.90
4695;DHT22;2361;49.540;8.390;2023-09-18T11:23:09;23.90;99.90
4695;DHT22;2361;49.540;8.390;2023-09-18T11:25:43;24.00;99.90
4695;DHT22;2361;49.540;8.390;2023-09-18T11:28:25;24.00;99.90
4695;DHT22;2361;49.540;8.390;2023-09-18T11:30:54;23.90;99.90
4695;DHT22;2361;49.540;8.390;2023-09-18T11:33:45;23.90;99.90
4695;DHT22;2361;49.540;8.390;2023-09-18T11:36:15;23.90;99.90
4695;DHT22;2361;49.540;8.390;2023-09-18T11:38:58;24.00;99.90
4695;DHT22;2361;49.540;8.390;2023-09-18T11:41:34;24.10;99.90
4695;DHT22;2361;49.540;8.390;2023-09-18T11:46:50;24.30;99.90
4695;DHT22;2361;49.540;8.390;2023-09-18T11:49:23;24.40;99.90
4695;DHT22;2361;49.540;8.390;2023-09-18T11:51:54;24.50;99.90
4695;DHT22;2361;49.540;8.390;2023-09-18T11:54:26;24.50;99.90
4695;DHT22;2361;49.540;8.390;2023-09-18T11:56:54;24.60;99.90
4695;DHT22;2361;49.540;8.390;2023-09-18T11:59:44;24.50;99.90
4695;DHT22;2361;49.540;8.390;2023-09-18T12:04:55;24.40;99.90
4695;DHT22;2361;49.540;8.390;2023-09-18T12:07:23;24.40;99.90
4695;DHT22;2361;49.540;8.390;2023-09-18T12:09:51;24.50;99.90
4695;DHT22;2361;49.540;8.390;2023-09-18T12:12:21;24.60;99.90
4695;DHT22;2361;49.540;8.390;2023-09-18T12:14:48;24.60;99.90
4695;DHT22;2361;49.540;8.390;2023-09-18T12:17:15;24.60;99.90
4695;DHT22;2361;49.540;8.390;2023-09-18T12:19:55;24.70;99.90
4695;DHT22;2361;49.540;8.390;2023-09-18T12:22:27;24.70;99.90
4695;DHT22;2361;49.540;8.390;2023-09-18T12:25:11;24.80;99.90
4695;DHT22;2361;49.540;8.390;2023-09-18T12:27:43;24.80;99.90
4695;DHT22;2361;49.540;8.390;2023-09-18T12:30:11;24.80;99.90
4695;DHT22;2361;49.540;8.390;2023-09-18T12:32:39;24.80;99.90
4695;DHT22;2361;49.540;8.390;2023-09-18T12:35:07;24.70;99.90
4695;DHT22;2361;49.540;8.390;2023-09-18T12:37:35;24.80;99.90
4695;DHT22;2361;49.540;8.390;2023-09-18T12:40:30;24.80;99.90
4695;DHT22;2361;49.540;8.390;2023-09-18T12:43:01;24.80;99.90
4695;DHT22;2361;49.540;8.390;2023-09-18T12:45:29;24.80;99.90
4695;DHT22;2361;49.540;8.390;2023-09-18T12:47:57;24.80;99.90
4695;DHT22;2361;49.540;8.390;2023-09-18T12:50:25;24.80;99.90
4695;DHT22;2361;49.540;8.390;2023-09-18T12:52:53;24.70;99.90
4695;DHT22;2361;49.540;8.390;2023-09-18T12:55:26;24.70;99.90
4695;DHT22;2361;49.540;8.390;2023-09-18T12:57:54;24.80;99.90
4695;DHT22;2361;49.540;8.390;2023-09-18T13:00:22;24.80;99.90
4695;DHT22;2361;49.540;8.390;2023-09-18T13:02:50;24.70;99.90
4695;DHT22;2361;49.540;8.390;2023-09-18T13:05:24;24.60;99.90
4695;DHT22;2361;49.540;8.390;2023-09-18T13:08:03;24.60;99.90
4695;DHT22;2361;49.540;8.390;2023-09-18T13:10:48;24.50;99.90
4695;DHT22;2361;49.540;8.390;2023-09-18T13:13:20;24.40;99.90
4695;DHT22;2361;49.540;8.390;2023-09-18T13:15:50;24.40;99.90
4695;DHT22;2361;49.540;8.390;2023-09-18T13:18:21;24.50;99.90
4695;DHT22;2361;49.540;8.390;2023-09-18T13:20:51;24.40;99.90
4695;DHT22;2361;49.540;8.390;2023-09-18T13:23:19;24.40;99.90
4695;DHT22;2361;49.540;8.390;2023-09-18T13:25:48;24.30;99.90
4695;DHT22;2361;49.540;8.390;2023-09-18T13:28:15;24.20;99.90
4695;DHT22;2361;49.540;8.390;2023-09-18T13:30:44;24.20;99.90
4695;DHT22;2361;49.540;8.390;2023-09-18T13:33:12;24.30;99.90
4695;DHT22;2361;49.540;8.390;2023-09-18T13:35:44;24.30;99.90
4695;DHT22;2361;49.540;8.390;2023-09-18T13:38:12;24.30;99.90
4695;DHT22;2361;49.540;8.390;2023-09-18T13:40:39;24.30;99.90
4695;DHT22;2361;49.540;8.390;2023-09-18T13:43:10;24.30;99.90
4695;DHT22;2361;49.540;8.390;2023-09-18T13:45:37;24.30;99.90
4695;DHT22;2361;49.540;8.390;2023-09-18T13:48:06;24.30;99.90
4695;DHT22;2361;49.540;8.390;2023-09-18T13:50:35;24.30;99.90
4695;DHT22;2361;49.540;8.390;2023-09-18T13:53:03;24.40;99.90
4695;DHT22;2361;49.540;8.390;2023-09-18T13:55:32;24.60;99.90
4695;DHT22;2361;49.540;8.390;2023-09-18T13:58:00;24.60;99.90
4695;DHT22;2361;49.540;8.390;2023-09-18T14:00:30;24.70;99.90
4695;DHT22;2361;49.540;8.390;2023-09-18T14:02:57;24.80;99.90
4695;DHT22;2361;49.540;8.390;2023-09-18T14:05:25;24.80;99.90
4695;DHT22;2361;49.540;8.390;2023-09-18T14:07:53;24.90;99.90
4695;DHT22;2361;49.540;8.390;2023-09-18T14:10:27;25.00;99.90
4695;DHT22;2361;49.540;8.390;2023-09-18T14:12:54;25.00;99.90
4695;DHT22;2361;49.540;8.390;2023-09-18T14:15:21;25.10;99.90
4695;DHT22;2361;49.540;8.390;2023-09-18T14:17:48;25.10;99.90
4695;DHT22;2361;49.540;8.390;2023-09-18T14:20:16;25.10;99.90
4695;DHT22;2361;49.540;8.390;2023-09-18T14:22:46;25.20;99.90
4695;DHT22;2361;49.540;8.390;2023-09-18T14:25:17;25.00;99.90
4695;DHT22;2361;49.540;8.390;2023-09-18T14:27:47;25.00;99.90
4695;DHT22;2361;49.540;8.390;2023-09-18T14:30:14;25.00;99.90
4695;DHT22;2361;49.540;8.390;2023-09-18T14:32:41;25.00;99.90
4695;DHT22;2361;49.540;8.390;2023-09-18T14:35:09;25.00;99.90
4695;DHT22;2361;49.540;8.390;2023-09-18T14:37:37;25.00;99.90
4695;DHT22;2361;49.540;8.390;2023-09-18T14:40:04;24.90;99.90
4695;DHT22;2361;49.540;8.390;2023-09-18T14:42:32;24.90;99.90
4695;DHT22;2361;49.540;8.390;2023-09-18T14:45:00;24.90;99.90
4695;DHT22;2361;49.540;8.390;2023-09-18T14:47:28;24.90;99.90
4695;DHT22;2361;49.540;8.390;2023-09-18T14:49:56;24.90;99.90
4695;DHT22;2361;49.540;8.390;2023-09-18T14:52:25;24.80;99.90
4695;DHT22;2361;49.540;8.390;2023-09-18T14:54:52;24.70;99.90
4695;DHT22;2361;49.540;8.390;2023-09-18T14:57:19;24.70;99.90
4695;DHT22;2361;49.540;8.390;2023-09-18T14:59:46;24.70;99.90
4695;DHT22;2361;49.540;8.390;2023-09-18T15:02:16;24.70;99.90
4695;DHT22;2361;49.540;8.390;2023-09-18T15:04:45;24.70;99.90
4695;DHT22;2361;49.540;8.390;2023-09-18T15:07:12;24.60;99.90
4695;DHT22;2361;49.540;8.390;2023-09-18T15:09:39;24.60;99.90
4695;DHT22;2361;49.540;8.390;2023-09-18T15:12:07;24.70;99.90
4695;DHT22;2361;49.540;8.390;2023-09-18T15:14:35;24.70;99.90
4695;DHT22;2361;49.540;8.390;2023-09-18T15:17:03;24.70;99.90
4695;DHT22;2361;49.540;8.390;2023-09-18T15:19:30;24.70;99.90
4695;DHT22;2361;49.540;8.390;2023-09-18T15:21:58;24.70;99.90
4695;DHT22;2361;49.540;8.390;2023-09-18T15:24:26;24.70;99.90
4695;DHT22;2361;49.540;8.390;2023-09-18T15:26:52;24.70;99.90
4695;DHT22;2361;49.540;8.390;2023-09-18T15:29:19;24.70;99.90
4695;DHT22;2361;49.540;8.390;2023-09-18T15:31:47;24.70;99.90
4695;DHT22;2361;49.540;8.390;2023-09-18T15:34:15;24.60;99.90
4695;DHT22;2361;49.540;8.390;2023-09-18T15:36:43;24.60;99.90
4695;DHT22;2361;49.540;8.390;2023-09-18T15:39:10;24.60;99.90
4695;DHT22;2361;49.540;8.390;2023-09-18T15:41:37;24.70;99.90
4695;DHT22;2361;49.540;8.390;2023-09-18T15:44:05;24.60;99.90
4695;DHT22;2361;49.540;8.390;2023-09-18T15:46:33;24.70;99.90
4695;DHT22;2361;49.540;8.390;2023-09-18T15:49:01;24.80;99.90
4695;DHT22;2361;49.540;8.390;2023-09-18T15:51:28;24.70;99.90
4695;DHT22;2361;49.540;8.390;2023-09-18T15:53:55;24.70;99.90
4695;DHT22;2361;49.540;8.390;2023-09-18T15:56:24;24.70;99.90
4695;DHT22;2361;49.540;8.390;2023-09-18T15:58:51;24.70;99.90
4695;DHT22;2361;49.540;8.390;2023-09-18T16:01:18;24.60;99.90
4695;DHT22;2361;49.540;8.390;2023-09-18T16:03:45;24.60;99.90
4695;DHT22;2361;49.540;8.390;2023-09-18T16:06:17;24.60;99.90
4695;DHT22;2361;49.540;8.390;2023-09-18T16:08:47;24.60;99.90
4695;DHT22;2361;49.540;8.390;2023-09-18T16:11:16;24.60;99.90
4695;DHT22;2361;49.540;8.390;2023-09-18T16:13:43;24.50;99.90
4695;DHT22;2361;49.540;8.390;2023-09-18T16:16:10;24.50;99.90
4695;DHT22;2361;49.540;8.390;2023-09-18T16:18:37;24.40;99.90
4695;DHT22;2361;49.540;8.390;2023-09-18T16:21:05;24.40;99.90
4695;DHT22;2361;49.540;8.390;2023-09-18T16:23:32;24.50;99.90
4695;DHT22;2361;49.540;8.390;2023-09-18T16:25:59;24.40;99.90
4695;DHT22;2361;49.540;8.390;2023-09-18T16:28:26;24.40;99.90
4695;DHT22;2361;49.540;8.390;2023-09-18T16:30:53;24.40;99.90
4695;DHT22;2361;49.540;8.390;2023-09-18T16:33:20;24.40;99.90
4695;DHT22;2361;49.540;8.390;2023-09-18T16:35:47;24.40;99.90